createdAt,value
2023-05-06T00:01:25.514Z,8.19
2023-05-06T00:03:52.805Z,8.21
2023-05-06T00:06:20.680Z,8.23
2023-05-06T00:08:47.518Z,8.26
2023-05-06T00:11:14.368Z,8.27
2023-05-06T00:13:41.730Z,8.27
2023-05-06T00:16:08.898Z,8.30
2023-05-06T00:18:35.710Z,8.29
2023-05-06T00:21:02.674Z,8.26
2023-05-06T00:23:29.610Z,8.19
2023-05-06T00:25:56.517Z,8.16
2023-05-06T00:28:23.369Z,8.14
2023-05-06T00:30:50.947Z,8.06
2023-05-06T00:33:17.886Z,7.92
2023-05-06T00:35:44.851Z,7.80
2023-05-06T00:38:14.562Z,7.69
2023-05-06T00:40:42.611Z,7.58
2023-05-06T00:43:09.658Z,7.47
2023-05-06T00:45:37.885Z,7.37
2023-05-06T00:48:06.938Z,7.30
2023-05-06T00:50:34.912Z,7.23
2023-05-06T00:53:03.844Z,7.18
2023-05-06T00:55:31.162Z,7.14
2023-05-06T00:57:58.615Z,7.11
2023-05-06T01:00:25.850Z,7.10
2023-05-06T01:02:53.016Z,7.07
2023-05-06T01:05:25.396Z,7.05
2023-05-06T01:08:20.940Z,7.04
2023-05-06T01:11:04.932Z,7.03
2023-05-06T01:13:44.885Z,7.00
2023-05-06T01:16:14.614Z,7.04
2023-05-06T01:18:43.794Z,7.08
2023-05-06T01:21:12.272Z,7.16
2023-05-06T01:23:57.214Z,7.18
2023-05-06T01:26:25.007Z,7.20
2023-05-06T01:28:52.868Z,7.19
2023-05-06T01:31:24.521Z,7.19
2023-05-06T01:33:54.854Z,7.20
2023-05-06T01:36:48.420Z,7.23
2023-05-06T01:39:24.068Z,7.24
2023-05-06T01:41:53.281Z,7.24
2023-05-06T01:44:23.100Z,7.30
2023-05-06T01:46:51.466Z,7.36
2023-05-06T01:49:19.426Z,7.38
2023-05-06T01:51:52.830Z,7.38
2023-05-06T01:54:19.877Z,7.39
2023-05-06T01:56:46.709Z,7.38
2023-05-06T01:59:15.301Z,7.38
2023-05-06T02:01:42.047Z,7.36
2023-05-06T02:04:08.948Z,7.29
2023-05-06T02:06:36.235Z,7.20
2023-05-06T02:09:03.793Z,7.10
2023-05-06T02:11:32.986Z,7.01
2023-05-06T02:14:06.304Z,6.91
2023-05-06T02:16:34.484Z,6.83
2023-05-06T02:19:01.433Z,6.74
2023-05-06T02:21:28.236Z,6.66
2023-05-06T02:23:55.189Z,6.57
2023-05-06T02:26:22.235Z,6.49
2023-05-06T02:28:49.236Z,6.41
2023-05-06T02:31:16.316Z,6.35
2023-05-06T02:33:45.420Z,6.28
2023-05-06T02:36:12.169Z,6.22
2023-05-06T02:38:39.107Z,6.18
2023-05-06T02:41:05.961Z,6.16
2023-05-06T02:43:32.804Z,6.14
2023-05-06T02:45:59.673Z,6.15
2023-05-06T02:48:26.684Z,6.17
2023-05-06T02:50:53.531Z,6.20
2023-05-06T02:53:20.461Z,6.23
2023-05-06T02:55:47.414Z,6.25
2023-05-06T02:58:14.254Z,6.29
2023-05-06T03:00:41.296Z,6.37
2023-05-06T03:03:09.396Z,6.45
2023-05-06T03:05:36.415Z,6.57
2023-05-06T03:08:03.364Z,6.71
2023-05-06T03:10:30.915Z,6.82
2023-05-06T03:12:58.257Z,6.92
2023-05-06T03:15:25.502Z,7.10
2023-05-06T03:17:53.863Z,7.63
2023-05-06T03:20:23.833Z,8.27
2023-05-06T03:22:52.947Z,8.87
2023-05-06T03:25:20.777Z,9.45
2023-05-06T03:27:47.914Z,10.00
2023-05-06T03:30:19.849Z,10.54
2023-05-06T03:32:48.390Z,11.04
2023-05-06T03:35:19.444Z,11.42
2023-05-06T03:37:49.170Z,11.77
2023-05-06T03:40:16.475Z,12.10
2023-05-06T03:42:45.260Z,12.42
2023-05-06T03:45:12.922Z,12.79
2023-05-06T03:47:40.121Z,13.28
2023-05-06T03:50:07.864Z,13.74
2023-05-06T03:52:35.703Z,14.21
2023-05-06T03:55:02.750Z,14.61
2023-05-06T03:57:29.858Z,14.87
2023-05-06T03:59:57.140Z,15.43
2023-05-06T04:02:24.323Z,15.55
2023-05-06T04:04:51.836Z,15.98
2023-05-06T04:07:18.556Z,16.53
2023-05-06T04:09:45.481Z,16.84
2023-05-06T04:12:12.201Z,17.08
2023-05-06T04:14:42.186Z,17.44
2023-05-06T04:17:09.851Z,17.88
2023-05-06T04:19:37.659Z,17.99
2023-05-06T04:22:04.397Z,18.66
2023-05-06T04:24:31.282Z,18.79
2023-05-06T04:26:58.901Z,19.21
2023-05-06T04:29:26.492Z,19.21
2023-05-06T04:31:57.985Z,19.53
2023-05-06T04:34:27.164Z,19.78
2023-05-06T04:36:54.820Z,20.15
2023-05-06T04:39:33.736Z,20.69
2023-05-06T04:42:01.729Z,21.16
2023-05-06T04:44:33.832Z,21.42
2023-05-06T04:47:01.609Z,21.45
2023-05-06T04:49:28.685Z,22.10
2023-05-06T04:51:56.488Z,22.05
2023-05-06T04:54:23.268Z,22.46
2023-05-06T04:56:50.692Z,22.55
2023-05-06T04:59:18.210Z,21.90
2023-05-06T05:01:45.627Z,22.30
2023-05-06T05:04:12.562Z,22.58
2023-05-06T05:06:39.757Z,22.85
2023-05-06T05:09:06.562Z,23.32
2023-05-06T05:11:37.688Z,23.71
2023-05-06T05:14:04.432Z,23.72
2023-05-06T05:16:31.406Z,23.40
2023-05-06T05:18:59.836Z,23.69
2023-05-06T05:21:28.950Z,23.26
2023-05-06T05:23:56.060Z,23.80
2023-05-06T05:26:22.899Z,24.76
2023-05-06T05:28:50.877Z,24.34
2023-05-06T05:31:17.643Z,24.46
2023-05-06T05:33:44.956Z,24.81
2023-05-06T05:36:15.575Z,24.64
2023-05-06T05:38:43.413Z,24.91
2023-05-06T05:41:10.687Z,25.48
2023-05-06T05:43:37.959Z,25.23
2023-05-06T05:46:04.788Z,25.29
2023-05-06T05:48:32.444Z,25.56
2023-05-06T05:51:01.684Z,25.36
2023-05-06T05:53:28.753Z,25.72
2023-05-06T05:55:55.716Z,25.92
2023-05-06T05:58:22.724Z,25.79
2023-05-06T06:00:50.015Z,26.21
2023-05-06T06:03:18.075Z,26.66
2023-05-06T06:05:45.112Z,26.33
2023-05-06T06:08:12.662Z,26.94
2023-05-06T06:10:39.618Z,26.93
2023-05-06T06:13:11.066Z,26.18
2023-05-06T06:15:37.932Z,26.39
2023-05-06T06:18:07.572Z,27.37
2023-05-06T06:20:35.484Z,27.22
2023-05-06T06:23:02.765Z,27.27
2023-05-06T06:25:29.958Z,27.10
2023-05-06T06:27:56.809Z,27.03
2023-05-06T06:30:23.794Z,27.24
2023-05-06T06:32:51.957Z,27.29
2023-05-06T06:35:23.259Z,26.66
2023-05-06T06:37:51.150Z,25.57
2023-05-06T06:40:18.170Z,25.33
2023-05-06T06:42:46.067Z,25.10
2023-05-06T06:45:32.029Z,24.77
2023-05-06T06:47:58.896Z,24.01
2023-05-06T06:50:26.450Z,24.06
2023-05-06T06:52:53.170Z,23.76
2023-05-06T06:55:20.270Z,23.70
2023-05-06T06:57:47.656Z,23.07
2023-05-06T07:00:15.406Z,23.12
2023-05-06T07:02:42.385Z,23.29
2023-05-06T07:05:09.603Z,23.43
2023-05-06T07:07:36.602Z,22.37
2023-05-06T07:10:03.836Z,22.72
2023-05-06T07:12:30.604Z,22.66
2023-05-06T07:14:57.369Z,22.39
2023-05-06T07:17:24.286Z,22.20
2023-05-06T07:19:51.378Z,22.58
2023-05-06T07:22:18.162Z,22.32
2023-05-06T07:24:44.931Z,22.19
2023-05-06T07:27:11.713Z,22.27
2023-05-06T07:29:38.480Z,22.71
2023-05-06T07:32:05.711Z,22.62
2023-05-06T07:34:33.883Z,21.89
2023-05-06T07:37:01.200Z,22.18
2023-05-06T07:39:28.022Z,21.81
2023-05-06T07:41:54.801Z,21.50
2023-05-06T07:44:21.807Z,21.29
2023-05-06T07:46:48.875Z,21.53
2023-05-06T07:49:15.882Z,21.66
2023-05-06T07:51:43.556Z,20.42
2023-05-06T07:54:10.900Z,20.64
2023-05-06T07:56:39.481Z,21.20
2023-05-06T07:59:06.894Z,21.32
2023-05-06T08:01:33.600Z,21.14
2023-05-06T08:04:00.777Z,21.52
2023-05-06T08:06:27.976Z,21.60
2023-05-06T08:08:56.588Z,21.90
2023-05-06T08:11:23.517Z,21.59
2023-05-06T08:13:50.325Z,21.46
2023-05-06T08:16:17.222Z,21.30
2023-05-06T08:18:44.042Z,21.80
2023-05-06T08:21:10.924Z,22.22
2023-05-06T08:23:37.917Z,22.35
2023-05-06T08:26:04.715Z,21.98
2023-05-06T08:28:31.518Z,21.54
2023-05-06T08:30:58.351Z,21.99
2023-05-06T08:33:25.203Z,22.23
2023-05-06T08:35:52.535Z,22.71
2023-05-06T08:38:19.515Z,23.23
2023-05-06T08:40:48.087Z,22.75
2023-05-06T08:43:19.573Z,22.54
2023-05-06T08:45:46.918Z,22.81
2023-05-06T08:48:14.894Z,23.14
2023-05-06T08:50:43.340Z,23.42
2023-05-06T08:53:12.120Z,23.68
2023-05-06T08:55:42.690Z,22.81
2023-05-06T08:58:12.944Z,22.09
2023-05-06T09:00:39.839Z,22.20
2023-05-06T09:03:06.796Z,22.38
2023-05-06T09:05:33.806Z,22.84
2023-05-06T09:08:00.482Z,22.63
2023-05-06T09:10:47.629Z,22.24
2023-05-06T09:13:17.611Z,21.96
2023-05-06T09:15:46.973Z,21.62
2023-05-06T09:18:15.069Z,22.27
2023-05-06T09:20:48.162Z,22.07
2023-05-06T09:23:17.064Z,21.94
2023-05-06T09:25:45.764Z,21.83
2023-05-06T09:28:13.678Z,21.98
2023-05-06T09:30:42.350Z,22.03
2023-05-06T09:33:10.567Z,22.06
2023-05-06T09:35:39.950Z,21.85
2023-05-06T09:38:07.702Z,22.33
2023-05-06T09:40:36.192Z,22.70
2023-05-06T09:43:03.786Z,23.09
2023-05-06T09:45:31.026Z,23.46
2023-05-06T09:47:58.505Z,23.45
2023-05-06T09:50:26.195Z,23.02
2023-05-06T09:52:54.842Z,22.71
2023-05-06T09:55:23.109Z,22.59
2023-05-06T09:57:50.712Z,22.70
2023-05-06T10:00:18.417Z,22.18
2023-05-06T10:02:47.383Z,22.00
2023-05-06T10:05:14.821Z,22.38
2023-05-06T10:07:41.805Z,22.52
2023-05-06T10:10:11.068Z,22.86
2023-05-06T10:12:38.939Z,23.12
2023-05-06T10:15:06.637Z,23.39
2023-05-06T10:17:34.108Z,23.29
2023-05-06T10:20:02.096Z,22.78
2023-05-06T10:22:48.656Z,22.06
2023-05-06T10:25:45.105Z,21.55
2023-05-06T10:28:14.723Z,21.85
2023-05-06T10:30:57.949Z,22.56
2023-05-06T10:33:27.222Z,22.94
2023-05-06T10:36:10.075Z,23.00
2023-05-06T10:38:50.092Z,22.81
2023-05-06T10:41:17.621Z,22.43
2023-05-06T10:43:44.878Z,22.28
2023-05-06T10:46:16.561Z,22.03
2023-05-06T10:49:13.385Z,22.29
2023-05-06T10:51:43.326Z,22.42
2023-05-06T10:54:20.994Z,22.42
2023-05-06T10:56:47.822Z,22.37
2023-05-06T10:59:15.969Z,22.37
2023-05-06T11:01:43.959Z,22.39
2023-05-06T11:04:18.875Z,22.35
2023-05-06T11:06:48.444Z,22.01
2023-05-06T11:09:17.492Z,22.38
2023-05-06T11:11:48.105Z,22.46
2023-05-06T11:14:25.588Z,22.15
2023-05-06T11:16:53.974Z,22.02
2023-05-06T11:19:29.577Z,21.39
2023-05-06T11:21:58.699Z,21.43
2023-05-06T11:24:46.409Z,21.65
2023-05-06T11:27:17.073Z,21.73
2023-05-06T11:29:43.790Z,21.36
2023-05-06T11:32:22.734Z,20.66
2023-05-06T11:34:55.782Z,20.88
2023-05-06T11:37:27.149Z,20.76
2023-05-06T11:39:54.305Z,20.65
2023-05-06T11:42:25.701Z,20.73
2023-05-06T11:45:00.037Z,20.70
2023-05-06T11:47:26.821Z,20.55
2023-05-06T11:49:58.560Z,20.91
2023-05-06T11:52:25.289Z,20.96
2023-05-06T11:54:53.449Z,21.08
2023-05-06T11:57:20.515Z,21.26
2023-05-06T11:59:53.765Z,21.44
2023-05-06T12:02:20.860Z,21.43
2023-05-06T12:04:49.463Z,21.34
2023-05-06T12:07:16.618Z,20.90
2023-05-06T12:09:48.577Z,20.49
2023-05-06T12:12:19.041Z,20.58
2023-05-06T12:14:47.240Z,20.42
2023-05-06T12:17:15.105Z,20.31
2023-05-06T12:19:41.893Z,20.36
2023-05-06T12:22:19.890Z,20.45
2023-05-06T12:24:49.933Z,20.62
2023-05-06T12:27:32.574Z,20.62
2023-05-06T12:30:00.218Z,20.78
2023-05-06T12:32:27.084Z,20.87
2023-05-06T12:34:55.446Z,20.97
2023-05-06T12:37:29.496Z,21.04
2023-05-06T12:39:59.161Z,21.12
2023-05-06T12:42:27.004Z,21.06
2023-05-06T12:44:53.793Z,21.08
2023-05-06T12:47:22.781Z,20.72
2023-05-06T12:49:59.191Z,20.55
2023-05-06T12:52:29.175Z,20.40
2023-05-06T12:54:56.893Z,20.32
2023-05-06T12:57:23.776Z,20.20
2023-05-06T12:59:50.733Z,20.18
2023-05-06T13:02:18.143Z,20.31
2023-05-06T13:04:46.226Z,20.36
2023-05-06T13:07:13.037Z,20.46
2023-05-06T13:09:39.951Z,20.68
2023-05-06T13:12:06.887Z,20.82
2023-05-06T13:14:33.842Z,20.99
2023-05-06T13:17:06.160Z,20.92
2023-05-06T13:19:33.577Z,21.14
2023-05-06T13:22:01.181Z,21.06
2023-05-06T13:24:31.943Z,21.09
2023-05-06T13:27:02.393Z,21.22
2023-05-06T13:29:29.757Z,21.05
2023-05-06T13:31:57.176Z,21.09
2023-05-06T13:34:24.028Z,21.03
2023-05-06T13:36:51.580Z,21.10
2023-05-06T13:39:18.429Z,20.89
2023-05-06T13:41:49.802Z,20.85
2023-05-06T13:44:21.210Z,20.99
2023-05-06T13:46:48.065Z,21.07
2023-05-06T13:49:15.116Z,21.21
2023-05-06T13:51:41.861Z,21.08
2023-05-06T13:54:08.717Z,20.77
2023-05-06T13:56:35.644Z,20.83
2023-05-06T13:59:02.686Z,20.77
2023-05-06T14:01:30.786Z,20.75
2023-05-06T14:03:57.711Z,20.54
2023-05-06T14:06:24.442Z,20.39
2023-05-06T14:08:51.484Z,20.33
2023-05-06T14:11:18.234Z,20.16
2023-05-06T14:13:44.968Z,20.29
2023-05-06T14:16:11.832Z,20.25
2023-05-06T14:18:38.651Z,20.28
2023-05-06T14:21:05.595Z,20.42
2023-05-06T14:23:32.447Z,20.57
2023-05-06T14:25:59.588Z,20.42
2023-05-06T14:28:26.442Z,20.42
2023-05-06T14:30:53.683Z,20.54
2023-05-06T14:33:22.677Z,20.63
2023-05-06T14:35:52.089Z,20.60
2023-05-06T14:38:19.428Z,20.58
2023-05-06T14:40:46.332Z,20.64
2023-05-06T14:43:13.208Z,20.42
2023-05-06T14:45:40.139Z,20.41
2023-05-06T14:48:07.191Z,20.44
2023-05-06T14:50:34.055Z,20.21
2023-05-06T14:53:02.985Z,20.21
2023-05-06T14:55:30.702Z,20.05
2023-05-06T14:57:57.450Z,19.93
2023-05-06T15:00:24.798Z,19.87
2023-05-06T15:02:51.662Z,19.92
2023-05-06T15:05:18.863Z,19.77
2023-05-06T15:07:45.847Z,19.68
2023-05-06T15:10:12.682Z,19.70
2023-05-06T15:12:39.598Z,19.64
2023-05-06T15:15:07.449Z,19.50
2023-05-06T15:17:34.247Z,19.47
2023-05-06T15:20:01.489Z,19.28
2023-05-06T15:22:28.434Z,19.16
2023-05-06T15:24:55.277Z,19.14
2023-05-06T15:27:22.123Z,19.13
2023-05-06T15:29:49.058Z,19.17
2023-05-06T15:32:16.115Z,19.19
2023-05-06T15:34:43.062Z,19.18
2023-05-06T15:37:10.726Z,19.12
2023-05-06T15:39:37.698Z,19.16
2023-05-06T15:42:04.919Z,19.16
2023-05-06T15:44:33.090Z,19.13
2023-05-06T15:47:00.223Z,19.04
2023-05-06T15:49:49.303Z,18.96
2023-05-06T15:52:14.293Z,18.88
2023-05-06T15:54:41.322Z,18.77
2023-05-06T15:57:08.387Z,18.69
2023-05-06T15:59:35.227Z,18.67
2023-05-06T16:02:26.433Z,18.63
2023-05-06T16:04:49.238Z,18.53
2023-05-06T16:07:16.438Z,18.47
2023-05-06T16:09:43.690Z,18.43
2023-05-06T16:12:10.737Z,18.39
2023-05-06T16:14:37.491Z,18.36
2023-05-06T16:17:04.232Z,18.30
2023-05-06T16:19:34.335Z,18.24
2023-05-06T16:22:02.102Z,18.16
2023-05-06T16:24:28.840Z,18.10
2023-05-06T16:26:56.004Z,18.06
2023-05-06T16:29:22.839Z,18.01
2023-05-06T16:31:50.010Z,17.95
2023-05-06T16:34:16.937Z,17.91
2023-05-06T16:36:44.083Z,17.87
2023-05-06T16:39:11.535Z,17.73
2023-05-06T16:41:38.477Z,17.70
2023-05-06T16:44:05.521Z,17.60
2023-05-06T16:46:32.713Z,17.55
2023-05-06T16:49:00.678Z,17.48
2023-05-06T16:51:28.408Z,17.41
2023-05-06T16:53:55.765Z,17.33
2023-05-06T16:56:22.916Z,17.27
2023-05-06T16:58:49.858Z,17.20
2023-05-06T17:01:16.730Z,17.07
2023-05-06T17:03:43.541Z,17.00
2023-05-06T17:06:11.098Z,16.90
2023-05-06T17:08:37.946Z,16.81
2023-05-06T17:11:06.234Z,16.69
2023-05-06T17:13:33.986Z,16.69
2023-05-06T17:16:00.846Z,16.59
2023-05-06T17:18:27.667Z,16.48
2023-05-06T17:20:56.690Z,16.40
2023-05-06T17:23:24.418Z,16.26
2023-05-06T17:25:51.574Z,16.19
2023-05-06T17:28:19.011Z,16.07
2023-05-06T17:30:46.319Z,15.98
2023-05-06T17:33:13.335Z,15.89
2023-05-06T17:35:40.168Z,15.78
2023-05-06T17:38:07.327Z,15.67
2023-05-06T17:40:34.089Z,15.52
2023-05-06T17:43:01.107Z,15.38
2023-05-06T17:45:28.751Z,15.26
2023-05-06T17:47:55.910Z,15.19
2023-05-06T17:50:22.860Z,15.09
2023-05-06T17:52:52.086Z,15.00
2023-05-06T17:55:20.930Z,14.95
2023-05-06T17:57:48.195Z,14.87
2023-05-06T18:00:16.363Z,14.76
2023-05-06T18:02:44.109Z,14.67
2023-05-06T18:05:11.350Z,14.59
2023-05-06T18:07:38.928Z,14.51
2023-05-06T18:10:06.545Z,14.47
2023-05-06T18:12:33.454Z,14.42
2023-05-06T18:15:00.907Z,14.34
2023-05-06T18:17:27.930Z,14.28
2023-05-06T18:19:55.014Z,14.23
2023-05-06T18:22:22.459Z,14.16
2023-05-06T18:24:54.423Z,14.12
2023-05-06T18:27:22.245Z,14.08
2023-05-06T18:29:49.245Z,14.04
2023-05-06T18:32:16.381Z,14.02
2023-05-06T18:34:43.224Z,13.97
2023-05-06T18:37:10.396Z,13.90
2023-05-06T18:39:42.025Z,13.86
2023-05-06T18:42:09.082Z,13.85
2023-05-06T18:44:36.433Z,13.87
2023-05-06T18:47:03.279Z,13.88
2023-05-06T18:49:30.954Z,13.90
2023-05-06T18:51:57.794Z,13.94
2023-05-06T18:54:24.614Z,13.99
2023-05-06T18:56:51.501Z,13.97
2023-05-06T18:59:19.332Z,13.96
2023-05-06T19:01:46.373Z,13.94
2023-05-06T19:04:13.378Z,13.93
2023-05-06T19:06:40.571Z,13.93
2023-05-06T19:09:07.729Z,13.92
2023-05-06T19:11:34.879Z,13.96
2023-05-06T19:14:01.709Z,13.94
2023-05-06T19:16:28.892Z,13.94
2023-05-06T19:18:55.915Z,13.96
2023-05-06T19:21:22.753Z,13.99
2023-05-06T19:23:49.595Z,14.02
2023-05-06T19:26:16.437Z,14.06
2023-05-06T19:28:43.183Z,14.11
2023-05-06T19:31:10.715Z,14.16
2023-05-06T19:33:38.399Z,14.15
2023-05-06T19:36:06.062Z,14.15
2023-05-06T19:38:33.516Z,14.24
2023-05-06T19:41:00.788Z,14.30
2023-05-06T19:43:28.020Z,14.29
2023-05-06T19:45:55.307Z,14.32
2023-05-06T19:48:23.248Z,14.30
2023-05-06T19:50:53.361Z,14.32
2023-05-06T19:53:22.252Z,14.31
2023-05-06T19:55:49.193Z,14.30
2023-05-06T19:58:16.757Z,14.26
2023-05-06T20:00:44.627Z,14.21
2023-05-06T20:03:11.511Z,14.18
2023-05-06T20:05:38.417Z,14.18
2023-05-06T20:08:10.167Z,14.13
2023-05-06T20:10:37.934Z,14.07
2023-05-06T20:13:05.937Z,14.00
2023-05-06T20:15:33.402Z,13.98
2023-05-06T20:18:00.450Z,13.98
2023-05-06T20:20:33.490Z,13.97
2023-05-06T20:23:03.411Z,13.94
2023-05-06T20:25:30.760Z,13.93
2023-05-06T20:27:58.673Z,13.90
2023-05-06T20:30:26.054Z,13.86
2023-05-06T20:32:53.062Z,13.84
2023-05-06T20:35:19.978Z,13.81
2023-05-06T20:37:46.932Z,13.78
2023-05-06T20:40:13.968Z,13.78
2023-05-06T20:42:40.806Z,13.76
2023-05-06T20:45:08.832Z,13.72
2023-05-06T20:47:36.038Z,13.71
2023-05-06T20:50:03.046Z,13.71
2023-05-06T20:52:29.819Z,13.68
2023-05-06T20:54:57.486Z,13.65
2023-05-06T20:57:24.313Z,13.61
2023-05-06T20:59:51.869Z,13.60
2023-05-06T21:02:18.888Z,13.57
2023-05-06T21:04:46.173Z,13.53
2023-05-06T21:07:12.920Z,13.50
2023-05-06T21:09:39.858Z,13.47
2023-05-06T21:12:07.844Z,13.42
2023-05-06T21:14:34.781Z,13.37
2023-05-06T21:17:01.556Z,13.34
2023-05-06T21:19:28.457Z,13.31
2023-05-06T21:21:56.316Z,13.27
2023-05-06T21:24:23.161Z,13.19
2023-05-06T21:26:51.145Z,13.11
2023-05-06T21:29:18.082Z,13.07
2023-05-06T21:31:44.828Z,13.03
2023-05-06T21:34:11.655Z,12.98
2023-05-06T21:36:38.605Z,12.96
2023-05-06T21:39:08.110Z,12.95
2023-05-06T21:41:35.764Z,12.95
2023-05-06T21:44:03.938Z,12.95
2023-05-06T21:46:31.857Z,12.95
2023-05-06T21:48:59.809Z,12.95
2023-05-06T21:51:28.975Z,12.94
2023-05-06T21:53:55.793Z,12.94
2023-05-06T21:56:23.625Z,12.92
2023-05-06T21:58:50.829Z,12.90
2023-05-06T22:01:17.657Z,12.90
2023-05-06T22:03:45.509Z,12.87
2023-05-06T22:06:13.021Z,12.83
2023-05-06T22:08:43.219Z,12.83
2023-05-06T22:11:10.473Z,12.78
2023-05-06T22:13:37.315Z,12.74
2023-05-06T22:16:04.687Z,12.71
2023-05-06T22:18:31.713Z,12.69
2023-05-06T22:20:59.091Z,12.64
2023-05-06T22:23:27.551Z,12.61
2023-05-06T22:25:54.510Z,12.57
2023-05-06T22:28:21.336Z,12.52
2023-05-06T22:30:48.178Z,12.48
2023-05-06T22:33:15.230Z,12.42
2023-05-06T22:35:42.377Z,12.39
2023-05-06T22:38:09.227Z,12.37
2023-05-06T22:40:36.159Z,12.34
2023-05-06T22:43:05.459Z,12.32
2023-05-06T22:45:32.331Z,12.28
2023-05-06T22:47:59.294Z,12.24
2023-05-06T22:50:26.496Z,12.19
2023-05-06T22:52:53.346Z,12.17
2023-05-06T22:55:20.587Z,12.10
2023-05-06T22:57:49.482Z,12.05
2023-05-06T23:00:19.567Z,12.00
2023-05-06T23:02:46.589Z,11.96
2023-05-06T23:05:13.769Z,11.92
2023-05-06T23:07:40.845Z,11.88
2023-05-06T23:10:08.310Z,11.83
2023-05-06T23:12:35.572Z,11.79
2023-05-06T23:15:02.802Z,11.75
2023-05-06T23:17:30.831Z,11.71
2023-05-06T23:19:58.640Z,11.69
2023-05-06T23:22:26.409Z,11.67
2023-05-06T23:24:53.455Z,11.65
2023-05-06T23:27:20.295Z,11.59
2023-05-06T23:29:47.034Z,11.56
2023-05-06T23:32:13.976Z,11.51
2023-05-06T23:34:40.719Z,11.49
2023-05-06T23:37:07.464Z,11.47
2023-05-06T23:39:34.303Z,11.44
2023-05-06T23:42:01.659Z,11.45
2023-05-06T23:44:28.513Z,11.44
2023-05-06T23:46:55.641Z,11.41
2023-05-06T23:49:22.596Z,11.36
2023-05-06T23:51:49.437Z,11.33
2023-05-06T23:54:16.215Z,11.28
2023-05-06T23:56:43.022Z,11.26
2023-05-06T23:59:09.820Z,11.23
